Time;durP1;ratioP1;P1;durP2;ratioP2;P2;SDS_P1;SDS_P2;PMS_P1;PMS_P2;Temp;Humidity;BMP_temperature;BMP_pressure;BME280_temperature;BME280_humidity;BME280_pressure;Samples;Min_cycle;Max_cycle;Signal;HPM_P1;HPM_P2
2023/06/21 00:00:45;;;;;;;7.87;5.70;;;22.20;99.90;;;;;;5090656;28;20547;-53
2023/06/21 00:03:15;;;;;;;6.83;4.60;;;22.20;99.90;;;;;;5092875;28;20447;-53
2023/06/21 00:05:41;;;;;;;13.23;6.30;;;22.20;99.90;;;;;;5094372;28;20447;-53
2023/06/21 00:08:08;;;;;;;12.83;6.63;;;22.10;99.90;;;;;;5094892;28;20522;-54
2023/06/21 00:10:35;;;;;;;8.97;6.70;;;22.10;99.90;;;;;;5094750;28;20467;-53
2023/06/21 00:13:02;;;;;;;6.20;4.13;;;22.00;99.90;;;;;;5094736;28;20526;-53
2023/06/21 00:15:29;;;;;;;10.93;6.83;;;22.00;99.90;;;;;;5094440;28;20447;-53
2023/06/21 00:17:56;;;;;;;9.87;7.00;;;21.90;99.90;;;;;;5094304;28;20557;-53
2023/06/21 00:20:25;;;;;;;7.10;4.90;;;21.80;99.90;;;;;;5094504;28;20460;-53
2023/06/21 00:22:55;;;;;;;9.43;5.60;;;21.90;99.90;;;;;;5094916;28;20518;-54
2023/06/21 00:25:23;;;;;;;10.20;5.90;;;21.90;99.90;;;;;;5094361;28;20946;-53
2023/06/21 00:27:50;;;;;;;10.43;6.00;;;21.90;99.90;;;;;;5094167;28;20953;-53
2023/06/21 00:30:17;;;;;;;11.50;6.60;;;21.90;99.90;;;;;;5094471;28;20571;-55
2023/06/21 00:32:44;;;;;;;6.10;4.80;;;21.70;99.90;;;;;;5094345;28;20599;-53
2023/06/21 00:35:11;;;;;;;8.00;5.00;;;21.50;99.90;;;;;;5094336;28;20548;-53
2023/06/21 00:37:40;;;;;;;10.03;6.80;;;21.60;99.90;;;;;;5093802;28;20440;-53
2023/06/21 00:40:11;;;;;;;6.80;6.10;;;21.60;99.90;;;;;;5094300;28;20550;-53
2023/06/21 00:42:39;;;;;;;8.03;6.40;;;21.60;99.90;;;;;;5094246;28;20961;-53
2023/06/21 00:45:07;;;;;;;12.17;6.87;;;21.60;99.90;;;;;;5093796;28;20476;-53
2023/06/21 00:47:34;;;;;;;9.63;5.17;;;21.50;99.90;;;;;;5093984;28;20445;-53
2023/06/21 00:50:01;;;;;;;7.43;5.10;;;21.50;99.90;;;;;;5093347;28;20661;-53
2023/06/21 00:52:28;;;;;;;7.10;5.03;;;21.50;99.90;;;;;;5092102;28;20924;-53
2023/06/21 00:54:57;;;;;;;9.13;5.20;;;21.40;99.90;;;;;;5094178;28;20532;-53
2023/06/21 00:57:24;;;;;;;7.70;5.10;;;21.40;99.90;;;;;;5093487;28;20455;-53
2023/06/21 00:59:53;;;;;;;9.67;4.60;;;21.40;99.90;;;;;;5093557;28;20486;-53
2023/06/21 01:02:20;;;;;;;7.00;4.97;;;21.40;99.90;;;;;;5091934;28;20505;-53
2023/06/21 01:04:49;;;;;;;12.10;6.70;;;21.40;99.90;;;;;;5094107;28;20440;-54
2023/06/21 01:07:29;;;;;;;20.67;6.90;;;21.20;99.90;;;;;;5093326;28;20819;-53
2023/06/21 01:10:14;;;;;;;11.80;6.47;;;21.00;99.90;;;;;;5093215;28;20552;-53
2023/06/21 01:12:50;;;;;;;9.03;5.43;;;20.80;99.90;;;;;;5092972;28;20458;-52
2023/06/21 01:15:23;;;;;;;7.80;5.53;;;20.90;99.90;;;;;;5092892;28;20530;-53
2023/06/21 01:17:52;;;;;;;9.20;5.50;;;21.00;99.90;;;;;;5093395;28;20478;-54
2023/06/21 01:20:24;;;;;;;6.83;4.33;;;21.10;99.90;;;;;;5093163;28;20487;-53
2023/06/21 01:23:12;;;;;;;8.60;5.43;;;21.10;99.90;;;;;;5093674;28;20489;-52
2023/06/21 01:25:54;;;;;;;12.43;7.53;;;21.20;99.90;;;;;;5093217;28;20450;-53
2023/06/21 01:28:41;;;;;;;9.43;6.63;;;21.10;99.90;;;;;;5093205;28;20514;-53
2023/06/21 01:31:15;;;;;;;12.13;5.97;;;21.10;99.90;;;;;;5093116;28;20951;-55
2023/06/21 01:33:43;;;;;;;6.17;4.77;;;21.30;99.90;;;;;;5093563;28;20444;-53
2023/06/21 01:36:11;;;;;;;11.23;7.47;;;21.40;99.90;;;;;;5093393;28;20475;-53
2023/06/21 01:38:38;;;;;;;10.13;5.60;;;21.20;99.90;;;;;;5093052;28;20501;-53
2023/06/21 01:41:06;;;;;;;7.80;5.37;;;21.10;99.90;;;;;;5093060;28;21049;-54
2023/06/21 01:43:33;;;;;;;8.17;5.43;;;21.10;99.90;;;;;;5093268;28;20500;-55
2023/06/21 01:46:02;;;;;;;7.70;5.13;;;21.00;99.90;;;;;;5092655;28;20950;-54
2023/06/21 01:48:33;;;;;;;13.70;6.47;;;21.00;99.90;;;;;;5092693;28;20439;-52
2023/06/21 01:51:02;;;;;;;12.80;6.70;;;21.00;99.90;;;;;;5092912;28;20463;-53
2023/06/21 01:53:32;;;;;;;12.27;8.17;;;21.00;99.90;;;;;;5091208;28;20457;-54
2023/06/21 01:56:01;;;;;;;6.93;4.57;;;21.00;99.90;;;;;;5091171;28;21020;-53
2023/06/21 01:58:29;;;;;;;10.30;5.87;;;21.00;99.90;;;;;;5092747;28;20474;-54
2023/06/21 02:00:57;;;;;;;11.80;5.83;;;20.80;99.90;;;;;;5092400;28;20856;-55
2023/06/21 02:03:27;;;;;;;8.20;5.10;;;20.80;99.90;;;;;;5090722;28;20444;-53
2023/06/21 02:05:57;;;;;;;9.10;5.60;;;20.80;99.90;;;;;;5092144;28;20940;-54
2023/06/21 02:08:26;;;;;;;16.40;6.87;;;20.80;99.90;;;;;;5092952;28;20867;-53
2023/06/21 02:10:53;;;;;;;10.97;6.30;;;20.70;99.90;;;;;;5093169;28;20465;-55
2023/06/21 02:13:21;;;;;;;10.30;6.63;;;20.60;99.90;;;;;;5093160;28;20440;-54
2023/06/21 02:15:48;;;;;;;8.53;5.47;;;20.50;99.90;;;;;;5092121;28;20440;-53
2023/06/21 02:18:16;;;;;;;8.07;5.70;;;20.40;99.90;;;;;;5092009;28;20531;-53
2023/06/21 02:20:43;;;;;;;11.70;6.93;;;20.50;99.90;;;;;;5092288;28;20464;-53
2023/06/21 02:23:11;;;;;;;12.10;7.30;;;20.50;99.90;;;;;;5092252;28;20457;-53
2023/06/21 02:25:38;;;;;;;11.50;6.30;;;20.40;99.90;;;;;;5091605;28;20530;-53
2023/06/21 02:28:05;;;;;;;12.53;7.17;;;20.50;99.90;;;;;;5091797;28;20877;-53
2023/06/21 02:30:32;;;;;;;7.83;5.03;;;20.50;99.90;;;;;;5091905;28;20514;-53
2023/06/21 02:32:59;;;;;;;8.80;4.83;;;20.40;99.90;;;;;;5091888;28;21031;-54
2023/06/21 02:35:26;;;;;;;16.30;6.27;;;20.40;99.90;;;;;;5091491;28;20987;-53
2023/06/21 02:37:53;;;;;;;13.13;5.63;;;20.30;99.90;;;;;;5091679;28;20510;-54
2023/06/21 02:40:21;;;;;;;14.93;6.57;;;20.00;99.90;;;;;;5091991;28;20558;-53
2023/06/21 02:42:48;;;;;;;11.80;4.57;;;19.90;99.90;;;;;;5091755;28;20448;-53
2023/06/21 02:45:16;;;;;;;7.03;5.57;;;20.00;99.90;;;;;;5091436;28;20532;-52
2023/06/21 02:47:43;;;;;;;9.80;6.23;;;20.10;99.90;;;;;;5091487;28;20447;-54
2023/06/21 02:50:10;;;;;;;14.03;6.90;;;20.00;99.90;;;;;;5091881;28;20547;-53
2023/06/21 02:52:37;;;;;;;13.40;7.73;;;20.00;99.90;;;;;;5090066;28;20443;-53
2023/06/21 02:55:05;;;;;;;10.90;5.77;;;20.00;99.90;;;;;;5091685;28;20438;-54
2023/06/21 02:57:33;;;;;;;7.60;5.37;;;20.00;99.90;;;;;;5091477;28;20505;-53
2023/06/21 03:00:00;;;;;;;8.23;5.43;;;20.00;99.90;;;;;;5091137;28;20895;-53
2023/06/21 03:02:33;;;;;;;6.10;5.43;;;20.00;99.90;;;;;;5090037;28;20534;-53
2023/06/21 03:05:00;;;;;;;8.10;5.07;;;20.10;99.90;;;;;;5091655;28;20535;-53
2023/06/21 03:07:28;;;;;;;10.83;6.20;;;20.10;99.90;;;;;;5091425;28;20439;-53
2023/06/21 03:09:55;;;;;;;7.37;5.67;;;20.10;99.90;;;;;;5091348;28;20456;-55
2023/06/21 03:12:22;;;;;;;13.83;6.63;;;20.00;99.90;;;;;;5091571;28;20478;-53
2023/06/21 03:14:50;;;;;;;13.63;6.97;;;19.80;99.90;;;;;;5091648;28;20497;-53
2023/06/21 03:17:17;;;;;;;11.30;6.73;;;19.70;99.90;;;;;;5090753;28;20444;-53
2023/06/21 03:19:44;;;;;;;10.07;5.73;;;19.70;99.90;;;;;;5090934;28;21065;-53
2023/06/21 03:22:11;;;;;;;12.10;6.20;;;19.60;99.90;;;;;;5091168;28;20515;-53
2023/06/21 03:24:37;;;;;;;8.50;5.10;;;19.60;99.90;;;;;;5091582;28;20534;-54
2023/06/21 03:27:05;;;;;;;13.00;5.93;;;19.50;99.90;;;;;;5090923;28;20521;-53
2023/06/21 03:29:34;;;;;;;13.40;6.10;;;19.40;99.90;;;;;;5090746;28;20531;-53
2023/06/21 03:32:02;;;;;;;9.80;6.17;;;19.50;99.90;;;;;;5091272;28;20978;-53
2023/06/21 03:34:29;;;;;;;12.50;5.90;;;19.50;99.90;;;;;;5091327;28;20987;-53
2023/06/21 03:36:56;;;;;;;7.27;4.33;;;19.50;99.90;;;;;;5090177;28;20453;-53
2023/06/21 03:39:23;;;;;;;9.87;5.97;;;19.50;99.90;;;;;;5090756;28;20559;-53
2023/06/21 03:41:50;;;;;;;8.20;4.53;;;19.50;99.90;;;;;;5092038;28;20778;-52
2023/06/21 03:44:17;;;;;;;8.80;5.33;;;19.60;99.90;;;;;;5091311;28;20488;-53
2023/06/21 03:46:44;;;;;;;12.43;5.17;;;19.60;99.90;;;;;;5090698;28;20539;-53
2023/06/21 03:49:12;;;;;;;7.50;5.50;;;19.60;99.90;;;;;;5090369;28;20475;-55
2023/06/21 03:51:40;;;;;;;11.23;5.20;;;19.50;99.90;;;;;;5090019;28;20462;-53
2023/06/21 03:54:07;;;;;;;10.77;5.00;;;19.40;99.90;;;;;;5090654;28;20436;-53
2023/06/21 03:56:33;;;;;;;8.27;5.23;;;19.50;99.90;;;;;;5090257;28;20440;-53
2023/06/21 03:59:00;;;;;;;7.10;5.87;;;19.50;99.90;;;;;;5090420;28;20982;-53
2023/06/21 04:01:27;;;;;;;7.20;4.97;;;19.50;99.90;;;;;;5089099;28;20733;-53
2023/06/21 04:03:55;;;;;;;8.93;4.90;;;19.40;99.90;;;;;;5090864;28;20443;-53
2023/06/21 04:06:25;;;;;;;6.93;5.33;;;19.60;99.90;;;;;;5090330;28;20979;-54
2023/06/21 04:08:53;;;;;;;9.23;5.17;;;19.60;99.90;;;;;;5090619;28;20451;-53
2023/06/21 04:11:19;;;;;;;6.30;4.60;;;19.70;99.90;;;;;;5090607;28;21049;-55
2023/06/21 04:13:46;;;;;;;10.40;5.43;;;19.70;99.90;;;;;;5090866;28;20472;-53
2023/06/21 04:16:13;;;;;;;10.33;6.40;;;19.60;99.90;;;;;;5090376;28;20535;-53
2023/06/21 04:18:40;;;;;;;8.03;5.43;;;19.60;99.90;;;;;;5090584;28;20473;-53
2023/06/21 04:21:07;;;;;;;9.47;4.63;;;19.60;99.90;;;;;;5090552;28;20583;-52
2023/06/21 04:23:36;;;;;;;6.83;4.73;;;19.60;99.90;;;;;;5090621;28;20439;-53
2023/06/21 04:26:04;;;;;;;8.00;5.83;;;19.50;99.90;;;;;;5090172;28;20498;-53
2023/06/21 04:28:31;;;;;;;8.10;5.20;;;19.60;99.90;;;;;;5090007;28;20960;-53
2023/06/21 04:30:58;;;;;;;7.70;5.13;;;19.60;99.90;;;;;;5090464;28;20554;-53
2023/06/21 04:33:25;;;;;;;9.00;5.30;;;19.70;99.90;;;;;;5090681;28;20480;-54
2023/06/21 04:35:52;;;;;;;7.23;4.93;;;19.80;99.90;;;;;;5090074;28;20967;-53
2023/06/21 04:38:19;;;;;;;7.10;5.57;;;19.80;99.90;;;;;;5090287;28;20534;-55
2023/06/21 04:40:47;;;;;;;11.20;5.43;;;19.70;99.90;;;;;;5090251;28;20479;-53
2023/06/21 04:43:14;;;;;;;11.13;5.50;;;19.70;99.90;;;;;;5090739;28;20522;-53
2023/06/21 04:45:41;;;;;;;9.33;5.20;;;19.80;99.90;;;;;;5090142;28;20858;-55
2023/06/21 04:48:08;;;;;;;7.47;5.80;;;19.80;99.90;;;;;;5091895;28;20536;-53
2023/06/21 04:50:35;;;;;;;8.40;5.57;;;19.80;99.90;;;;;;5093776;28;20540;-53
2023/06/21 04:53:02;;;;;;;10.50;5.60;;;19.70;99.90;;;;;;5092531;28;20458;-53
2023/06/21 04:55:29;;;;;;;10.53;5.50;;;19.70;99.90;;;;;;5093439;28;20998;-53
2023/06/21 04:57:58;;;;;;;11.97;6.90;;;19.80;99.90;;;;;;5093638;28;20501;-54
2023/06/21 05:00:25;;;;;;;15.03;5.97;;;19.80;99.90;;;;;;5093781;28;20993;-53
2023/06/21 05:02:52;;;;;;;12.50;6.67;;;19.70;99.90;;;;;;5092198;28;20551;-53
2023/06/21 05:05:19;;;;;;;10.13;5.20;;;19.70;99.90;;;;;;5093353;28;20444;-54
2023/06/21 05:07:46;;;;;;;9.47;5.50;;;19.70;99.90;;;;;;5092036;28;20534;-53
2023/06/21 05:10:13;;;;;;;10.93;5.57;;;19.70;99.90;;;;;;5073347;28;21212;-53
2023/06/21 05:12:40;;;;;;;7.63;4.70;;;19.80;99.90;;;;;;5073539;28;20490;-53
2023/06/21 05:15:09;;;;;;;8.23;5.30;;;19.80;99.90;;;;;;5073211;28;20535;-53
2023/06/21 05:17:37;;;;;;;8.77;5.60;;;19.80;99.90;;;;;;5073051;28;20699;-54
2023/06/21 05:20:04;;;;;;;7.00;5.00;;;19.90;99.90;;;;;;5073003;28;20565;-54
2023/06/21 05:22:31;;;;;;;9.30;5.10;;;19.90;99.90;;;;;;5073061;28;20548;-55
2023/06/21 05:25:00;;;;;;;7.97;5.30;;;20.00;99.90;;;;;;5073468;28;20549;-53
2023/06/21 05:27:27;;;;;;;6.60;5.30;;;20.00;99.90;;;;;;5072795;28;20535;-55
2023/06/21 05:29:54;;;;;;;8.80;5.20;;;20.10;99.90;;;;;;5072651;28;20560;-53
2023/06/21 05:32:25;;;;;;;9.07;5.67;;;20.10;99.90;;;;;;5072854;28;20527;-54
2023/06/21 05:34:53;;;;;;;12.83;7.10;;;20.10;99.90;;;;;;5072891;28;20448;-54
2023/06/21 05:37:20;;;;;;;7.90;5.10;;;19.90;99.90;;;;;;5072557;28;20448;-55
2023/06/21 05:39:47;;;;;;;7.20;5.20;;;20.10;99.90;;;;;;5072631;28;20480;-54
2023/06/21 05:42:14;;;;;;;9.37;5.23;;;20.30;99.90;;;;;;5072854;28;20440;-56
2023/06/21 05:44:41;;;;;;;8.33;4.87;;;20.40;99.90;;;;;;5073352;28;20639;-54
2023/06/21 05:47:08;;;;;;;7.90;5.13;;;20.50;99.90;;;;;;5072471;28;20480;-53
2023/06/21 05:49:37;;;;;;;7.30;5.37;;;20.60;99.90;;;;;;5072293;28;20493;-53
2023/06/21 05:52:04;;;;;;;11.37;5.70;;;20.60;99.90;;;;;;5071849;28;20479;-54
2023/06/21 05:54:31;;;;;;;9.40;5.50;;;20.60;99.90;;;;;;5072356;28;20532;-53
2023/06/21 05:56:58;;;;;;;8.50;5.13;;;20.60;99.90;;;;;;5070182;28;20479;-54
2023/06/21 05:59:25;;;;;;;8.10;4.83;;;20.70;99.90;;;;;;5071242;28;20536;-55
2023/06/21 06:01:52;;;;;;;12.20;6.07;;;20.70;99.90;;;;;;5068981;28;20496;-54
2023/06/21 06:04:19;;;;;;;9.90;6.40;;;20.70;99.90;;;;;;5072444;28;20543;-53
2023/06/21 06:06:47;;;;;;;6.77;4.90;;;21.20;99.90;;;;;;5069551;28;20493;-54
2023/06/21 06:09:14;;;;;;;10.40;7.23;;;22.00;99.90;;;;;;5071420;28;20924;-54
2023/06/21 06:11:41;;;;;;;13.33;7.03;;;23.20;99.90;;;;;;5071692;28;20437;-55
2023/06/21 06:14:10;;;;;;;9.77;4.63;;;24.20;99.90;;;;;;5071703;28;20452;-54
2023/06/21 06:16:37;;;;;;;11.50;5.73;;;25.20;99.90;;;;;;5071360;28;20462;-56
2023/06/21 06:19:04;;;;;;;11.57;5.77;;;25.90;99.90;;;;;;5071528;28;20490;-52
2023/06/21 06:21:31;;;;;;;12.73;6.13;;;26.20;99.90;;;;;;5071654;28;20576;-52
2023/06/21 06:23:59;;;;;;;10.93;5.60;;;26.00;99.90;;;;;;5071696;28;20518;-52
2023/06/21 06:26:27;;;;;;;7.47;5.07;;;25.80;99.90;;;;;;5071443;28;20441;-53
2023/06/21 06:28:56;;;;;;;9.83;5.63;;;25.60;99.90;;;;;;5071754;28;20535;-53
2023/06/21 06:31:26;;;;;;;11.00;5.23;;;25.30;99.90;;;;;;5069752;28;21009;-52
2023/06/21 06:33:53;;;;;;;8.20;4.30;;;25.10;99.90;;;;;;5071050;28;20477;-53
2023/06/21 06:36:21;;;;;;;23.60;8.73;;;24.80;99.90;;;;;;5070057;28;20506;-53
2023/06/21 06:38:48;;;;;;;10.07;5.27;;;24.60;99.90;;;;;;5070177;28;20475;-52
2023/06/21 06:41:17;;;;;;;7.83;4.90;;;24.40;99.90;;;;;;5070751;28;20563;-53
2023/06/21 06:43:44;;;;;;;10.53;5.63;;;24.30;99.90;;;;;;5071445;28;21071;-52
2023/06/21 06:46:11;;;;;;;13.33;7.47;;;24.20;99.90;;;;;;5071078;28;20502;-53
2023/06/21 06:48:38;;;;;;;10.40;7.10;;;24.10;99.90;;;;;;5071200;28;20527;-52
2023/06/21 06:51:05;;;;;;;13.47;6.80;;;23.90;99.90;;;;;;5071324;28;20539;-53
2023/06/21 06:53:32;;;;;;;15.60;5.80;;;23.60;99.90;;;;;;5071340;28;20532;-53
2023/06/21 06:56:00;;;;;;;13.47;6.17;;;23.40;99.90;;;;;;5070631;28;20464;-53
2023/06/21 06:58:28;;;;;;;14.27;5.60;;;23.10;99.90;;;;;;5071244;28;20525;-52
2023/06/21 07:00:56;;;;;;;12.70;6.70;;;23.00;99.90;;;;;;5069344;28;20499;-54
2023/06/21 07:03:22;;;;;;;14.50;6.03;;;23.00;99.90;;;;;;5071506;28;20527;-53
2023/06/21 07:05:50;;;;;;;8.27;5.50;;;23.10;99.90;;;;;;5070938;28;20527;-53
2023/06/21 07:08:17;;;;;;;12.23;5.97;;;23.20;99.90;;;;;;5070885;28;20506;-54
2023/06/21 07:10:44;;;;;;;12.33;6.50;;;23.40;99.90;;;;;;5070741;28;20900;-52
2023/06/21 07:13:11;;;;;;;17.27;8.03;;;23.60;99.90;;;;;;5070937;28;20448;-53
2023/06/21 07:15:39;;;;;;;11.70;5.87;;;23.60;99.90;;;;;;5070813;28;20929;-52
2023/06/21 07:18:06;;;;;;;10.90;6.60;;;23.80;99.90;;;;;;5070784;28;20476;-53
2023/06/21 07:20:34;;;;;;;10.90;6.73;;;24.00;99.90;;;;;;5070681;28;20520;-52
2023/06/21 07:23:01;;;;;;;11.70;5.90;;;24.20;99.90;;;;;;5070860;28;20448;-53
2023/06/21 07:25:28;;;;;;;9.50;6.03;;;24.40;99.90;;;;;;5070586;28;20494;-52
2023/06/21 07:27:55;;;;;;;10.27;6.73;;;24.50;99.90;;;;;;5070670;28;20926;-53
2023/06/21 07:30:22;;;;;;;11.03;6.53;;;24.40;99.90;;;;;;5070745;28;20499;-54
2023/06/21 07:32:51;;;;;;;11.80;6.37;;;24.50;99.90;;;;;;5069147;28;20452;-53
2023/06/21 07:35:19;;;;;;;11.53;6.50;;;24.50;99.90;;;;;;5070645;28;20520;-51
2023/06/21 07:37:46;;;;;;;12.57;6.13;;;24.60;99.90;;;;;;5070351;28;20983;-52
2023/06/21 07:40:14;;;;;;;10.23;6.53;;;24.60;99.90;;;;;;5070448;28;20533;-54
2023/06/21 07:42:41;;;;;;;7.27;5.77;;;24.80;99.90;;;;;;5070856;28;20472;-52
2023/06/21 07:45:09;;;;;;;8.00;5.80;;;25.00;99.90;;;;;;5070850;28;20528;-52
2023/06/21 07:47:36;;;;;;;12.57;7.73;;;25.10;99.90;;;;;;5070589;28;20480;-53
2023/06/21 07:50:05;;;;;;;10.90;6.37;;;25.20;99.90;;;;;;5070681;28;20456;-52
2023/06/21 07:52:32;;;;;;;7.63;5.53;;;25.30;99.90;;;;;;5070762;28;20472;-53
2023/06/21 07:54:59;;;;;;;28.43;10.33;;;25.50;99.90;;;;;;5070596;28;20502;-51
2023/06/21 07:57:26;;;;;;;36.57;10.20;;;25.60;99.90;;;;;;5070879;28;20491;-53
2023/06/21 07:59:53;;;;;;;8.93;6.10;;;25.60;99.90;;;;;;5068372;28;20963;-51
2023/06/21 08:02:20;;;;;;;20.63;8.73;;;25.80;99.90;;;;;;5070466;28;21076;-52
2023/06/21 08:04:47;;;;;;;18.30;8.47;;;26.10;99.90;;;;;;5070828;28;20497;-51
2023/06/21 08:07:15;;;;;;;10.77;7.03;;;26.10;99.90;;;;;;5070273;28;20444;-51
2023/06/21 08:09:42;;;;;;;14.20;7.30;;;26.00;99.90;;;;;;5069901;28;20542;-51
2023/06/21 08:12:10;;;;;;;16.10;9.13;;;25.90;99.90;;;;;;5070246;28;20550;-51
2023/06/21 08:14:37;;;;;;;12.30;6.83;;;25.80;99.90;;;;;;5070727;28;20497;-53
2023/06/21 08:17:04;;;;;;;14.33;8.30;;;25.70;99.90;;;;;;5070211;28;20872;-52
2023/06/21 08:19:31;;;;;;;25.37;8.97;;;26.00;99.90;;;;;;5070222;28;20456;-54
2023/06/21 08:21:58;;;;;;;44.50;10.63;;;26.30;99.90;;;;;;5070664;28;20476;-51
2023/06/21 08:24:28;;;;;;;18.83;8.50;;;26.50;99.90;;;;;;5074224;28;20480;-51
2023/06/21 08:26:54;;;;;;;14.60;8.63;;;26.70;99.90;;;;;;5073869;28;20444;-51
2023/06/21 08:29:21;;;;;;;23.60;8.60;;;26.90;99.90;;;;;;5074205;28;20484;-51
2023/06/21 08:31:48;;;;;;;13.67;8.03;;;27.00;99.90;;;;;;5071391;28;20529;-55
2023/06/21 08:34:15;;;;;;;15.50;7.87;;;27.10;99.90;;;;;;5073267;28;20527;-54
2023/06/21 08:36:42;;;;;;;19.57;7.70;;;27.20;99.90;;;;;;5073360;28;20528;-55
2023/06/21 08:39:10;;;;;;;13.20;7.20;;;27.30;99.90;;;;;;5073379;28;20671;-54
2023/06/21 08:41:40;;;;;;;14.63;8.30;;;27.40;99.90;;;;;;5073734;28;21040;-51
2023/06/21 08:44:07;;;;;;;15.10;7.90;;;27.10;99.30;;;;;;5073733;28;20484;-52
2023/06/21 08:46:35;;;;;;;20.00;8.60;;;27.20;99.00;;;;;;5073665;28;20531;-51
2023/06/21 08:49:05;;;;;;;16.73;8.10;;;27.30;99.50;;;;;;5073087;28;20480;-51
2023/06/21 08:51:35;;;;;;;17.90;7.70;;;27.40;99.90;;;;;;5073569;28;20463;-52
2023/06/21 08:54:04;;;;;;;27.50;9.30;;;27.40;98.90;;;;;;5072362;28;20479;-51
2023/06/21 08:56:36;;;;;;;17.13;8.63;;;27.50;99.60;;;;;;5072108;28;20468;-53
2023/06/21 08:59:07;;;;;;;14.00;8.30;;;27.40;99.30;;;;;;5071925;28;20999;-53
2023/06/21 09:01:40;;;;;;;67.27;14.00;;;27.20;99.90;;;;;;5070874;28;20516;-52
2023/06/21 09:04:10;;;;;;;43.63;11.00;;;27.40;99.90;;;;;;5072510;28;20456;-51
2023/06/21 09:06:38;;;;;;;34.77;10.33;;;27.50;99.90;;;;;;5071756;28;20444;-54
2023/06/21 09:09:05;;;;;;;21.63;9.10;;;27.60;99.90;;;;;;5072856;28;20889;-51
2023/06/21 09:11:35;;;;;;;32.37;9.83;;;27.50;99.90;;;;;;5073279;28;20552;-52
2023/06/21 09:14:04;;;;;;;18.60;7.90;;;27.50;99.90;;;;;;5073377;28;20460;-51
2023/06/21 09:16:32;;;;;;;93.33;15.63;;;27.50;99.70;;;;;;5072829;28;20480;-51
2023/06/21 09:19:00;;;;;;;14.17;8.10;;;27.60;99.90;;;;;;5073039;28;20528;-51
2023/06/21 09:21:28;;;;;;;15.03;8.50;;;27.60;99.20;;;;;;5073076;28;20579;-54
2023/06/21 09:23:55;;;;;;;20.20;8.90;;;27.60;99.90;;;;;;5073331;28;20441;-54
2023/06/21 09:26:23;;;;;;;25.17;8.83;;;27.50;99.90;;;;;;5072812;28;21030;-56
2023/06/21 09:28:50;;;;;;;105.97;18.53;;;27.40;99.90;;;;;;5072613;28;20488;-56
2023/06/21 09:31:19;;;;;;;50.87;12.80;;;27.40;99.90;;;;;;5071266;28;20551;-54
2023/06/21 09:33:47;;;;;;;20.47;9.40;;;27.50;99.90;;;;;;5072539;28;20536;-52
2023/06/21 09:36:14;;;;;;;164.50;21.93;;;27.60;99.90;;;;;;5072429;28;20448;-51
2023/06/21 09:38:41;;;;;;;51.53;12.60;;;27.80;99.90;;;;;;5072720;28;20919;-52
2023/06/21 09:41:08;;;;;;;16.60;7.37;;;27.90;99.90;;;;;;5073061;28;20898;-51
2023/06/21 09:43:42;;;;;;;16.27;8.50;;;27.90;99.90;;;;;;5071278;28;20531;-52
2023/06/21 09:46:11;;;;;;;12.47;8.10;;;27.90;99.10;;;;;;5072407;28;20456;-51
2023/06/21 09:48:40;;;;;;;14.50;7.57;;;27.80;99.90;;;;;;5072779;28;20452;-51
2023/06/21 09:51:09;;;;;;;14.57;6.80;;;27.80;99.90;;;;;;5072327;28;20796;-51
2023/06/21 09:53:37;;;;;;;12.83;7.07;;;27.80;99.90;;;;;;5071108;28;21017;-52
2023/06/21 09:56:04;;;;;;;12.20;7.10;;;27.90;99.90;;;;;;5072312;28;20438;-54
2023/06/21 09:58:33;;;;;;;22.67;9.13;;;28.00;99.90;;;;;;5072318;28;20440;-51
2023/06/21 10:01:05;;;;;;;20.97;9.50;;;28.10;99.90;;;;;;5070793;28;20480;-51
2023/06/21 10:03:34;;;;;;;18.30;8.93;;;28.20;99.90;;;;;;5072725;28;21030;-53
2023/06/21 10:06:03;;;;;;;10.90;7.97;;;28.40;99.90;;;;;;5072410;28;20532;-51
2023/06/21 10:08:33;;;;;;;16.97;8.70;;;28.40;99.90;;;;;;5072259;28;20440;-53
2023/06/21 10:11:01;;;;;;;15.80;9.10;;;28.50;99.90;;;;;;5072449;28;20467;-51
2023/06/21 10:13:29;;;;;;;19.53;10.53;;;28.70;99.90;;;;;;5072709;28;20451;-52
2023/06/21 10:15:56;;;;;;;20.00;9.63;;;28.70;99.90;;;;;;5071665;28;20474;-52
2023/06/21 10:18:24;;;;;;;29.57;11.03;;;29.00;99.90;;;;;;5071958;28;20462;-52
2023/06/21 10:20:54;;;;;;;11.60;8.93;;;29.00;99.90;;;;;;5072427;28;20535;-52
2023/06/21 10:23:28;;;;;;;17.93;13.90;;;28.90;99.90;;;;;;5071828;28;20463;-53
2023/06/21 10:25:57;;;;;;;108.90;35.63;;;29.00;99.70;;;;;;5071760;28;20518;-51
2023/06/21 10:28:24;;;;;;;69.67;17.10;;;;;;;;;;5071291;28;20452;-49
2023/06/21 10:30:53;;;;;;;22.60;10.30;;;;;;;;;;5082016;28;20576;-49
2023/06/21 10:33:21;;;;;;;28.20;11.10;;;;;;;;;;5082174;28;20474;-52
2023/06/21 10:35:49;;;;;;;11.17;8.10;;;;;;;;;;5081075;28;20463;-48
2023/06/21 10:38:24;;;;;;;12.57;7.23;;;;;;;;;;5082345;28;20444;-48
2023/06/21 10:40:54;;;;;;;15.07;8.00;;;;;;;;;;5081513;28;20455;-48
2023/06/21 10:43:21;;;;;;;1500.80;238.00;;;;;;;;;;5080473;28;20469;-48
2023/06/21 10:45:49;;;;;;;297.93;48.33;;;;;;;;;;5080862;28;20520;-47
2023/06/21 10:48:19;;;;;;;7.97;6.10;;;;;;;;;;5082317;28;20522;-50
2023/06/21 10:50:46;;;;;;;11.73;7.20;;;;;;;;;;5076928;28;20488;-47
2023/06/21 10:53:14;;;;;;;21.77;8.53;;;;;;;;;;5071360;28;20485;-46
2023/06/21 10:55:41;;;;;;;8.93;7.27;;;;;;;;;;5071238;28;20505;-48
2023/06/21 10:58:13;;;;;;;10.80;8.47;;;;;;;;;;5070950;28;20474;-47
2023/06/21 11:00:40;;;;;;;11.97;9.00;;;;;;;;;;5069969;28;20461;-47
2023/06/21 11:03:12;;;;;;;15.40;8.57;;;;;;;;;;5071100;28;20508;-47
2023/06/21 11:05:40;;;;;;;10.77;8.03;;;;;;;;;;5070895;28;20444;-47
2023/06/21 11:08:09;;;;;;;11.23;8.67;;;;;;;;;;5069257;28;20527;-48
2023/06/21 11:10:38;;;;;;;10.77;8.83;;;;;;;;;;5071217;28;20835;-47
2023/06/21 11:13:05;;;;;;;16.83;9.70;;;;;;;;;;5069913;28;20459;-47
2023/06/21 11:15:34;;;;;;;11.73;7.97;;;;;;;;;;5070232;28;20472;-48
2023/06/21 11:18:02;;;;;;;12.97;8.73;;;;;;;;;;5071105;28;20857;-47
2023/06/21 11:20:31;;;;;;;10.50;8.90;;;;;;;;;;5071376;28;20464;-50
2023/06/21 11:22:59;;;;;;;12.93;8.90;;;;;;;;;;5070808;28;21006;-48
2023/06/21 11:25:27;;;;;;;12.17;8.87;;;;;;;;;;5070919;28;20437;-48
2023/06/21 11:28:13;;;;;;;13.93;9.67;;;;;;;;;;5070938;28;20778;-48
2023/06/21 11:31:01;;;;;;;13.03;9.07;;;;;;;;;;5069088;28;20566;-47
2023/06/21 11:33:29;;;;;;;14.27;9.40;;;;;;;;;;5070882;28;20475;-48
2023/06/21 11:36:03;;;;;;;16.60;9.77;;;;;;;;;;5070194;28;20959;-49
2023/06/21 11:38:30;;;;;;;14.93;9.20;;;;;;;;;;5070435;28;20440;-48
2023/06/21 11:40:57;;;;;;;11.63;8.83;;;;;;;;;;5070554;28;20482;-47
2023/06/21 11:43:25;;;;;;;13.67;9.27;;;;;;;;;;5070662;28;20472;-48
2023/06/21 11:46:00;;;;;;;12.33;8.40;;;;;;;;;;5093725;22;20523;-70
2023/06/21 11:48:28;;;;;;;11.30;8.67;;;;;;;;;;5070471;28;20468;-70
2023/06/21 11:50:56;;;;;;;17.53;8.83;;;;;;;;;;5071136;28;20502;-70
2023/06/21 11:53:26;;;;;;;28.70;10.97;;;;;;;;;;5070777;28;21020;-71
2023/06/21 11:55:54;;;;;;;14.83;8.00;;;;;;;;;;5070576;28;21071;-71
2023/06/21 11:58:21;;;;;;;17.17;7.63;;;;;;;;;;5105322;22;20584;-45
2023/06/21 12:00:49;;;;;;;11.07;8.10;;;;;;;;;;5093026;28;20890;-45
2023/06/21 12:03:19;;;;;;;12.03;8.97;;;;;;;;;;5094816;28;20612;-45
2023/06/21 12:05:50;;;;;;;12.03;7.20;;;;;;;;;;5094605;28;20459;-47
2023/06/21 12:08:18;;;;;;;25.43;9.90;;;;;;;;;;5092926;28;20954;-45
2023/06/21 12:10:46;;;;;;;11.40;7.53;;;;;;;;;;5118279;22;20492;-71
2023/06/21 12:13:14;;;;;;;13.83;8.83;;;;;;;;;;5095338;28;20481;-70
2023/06/21 12:15:47;;;;;;;17.47;8.80;;;;;;;;;;5094420;28;20671;-70
2023/06/21 12:18:14;;;;;;;15.30;8.33;;;;;;;;;;5094478;28;20467;-70
2023/06/21 12:20:43;;;;;;;21.10;9.13;;;;;;;;;;5094540;28;20431;-71
2023/06/21 12:23:10;;;;;;;17.60;9.13;;;;;;;;;;5097041;28;20923;-71
2023/06/21 12:25:44;;;;;;;26.20;8.70;;;;;;;;;;5094949;28;20479;-70
2023/06/21 12:28:13;;;;;;;16.47;8.57;;;;;;;;;;5094501;28;20463;-71
2023/06/21 12:30:47;;;;;;;17.60;9.03;;;;;;;;;;5093632;28;20530;-70
2023/06/21 12:33:15;;;;;;;12.30;7.47;;;;;;;;;;5095341;28;21000;-71
2023/06/21 12:35:45;;;;;;;12.67;7.67;;;;;;;;;;5098959;28;20451;-72
2023/06/21 12:38:15;;;;;;;15.83;7.50;;;;;;;;;;5097893;28;20905;-71
2023/06/21 12:40:53;;;;;;;18.30;8.43;;;;;;;;;;5095462;28;20451;-72
2023/06/21 12:43:32;;;;;;;10.30;7.30;;;;;;;;;;5094900;28;20514;-73
2023/06/21 12:45:59;;;;;;;11.40;7.80;;;;;;;;;;5094146;28;20942;-72
2023/06/21 12:48:27;;;;;;;12.90;8.33;;;;;;;;;;5094390;28;20562;-72
2023/06/21 12:50:57;;;;;;;12.10;7.97;;;;;;;;;;5094548;28;20523;-72
2023/06/21 12:53:25;;;;;;;15.20;8.50;;;;;;;;;;5094640;28;20829;-69
2023/06/21 12:55:52;;;;;;;13.60;7.90;;;;;;;;;;5093852;28;20443;-67
2023/06/21 12:58:20;;;;;;;20.87;9.63;;;;;;;;;;5094094;28;20524;-69
2023/06/21 13:00:48;;;;;;;11.03;7.50;;;;;;;;;;5092728;28;20446;-69
2023/06/21 13:03:16;;;;;;;34.33;14.93;;;;;;;;;;5094513;28;20484;-69
2023/06/21 13:05:43;;;;;;;10.30;8.27;;;;;;;;;;5093599;28;20444;-69